createdAt,value
2023-03-06T00:05:08.313Z,100627.69
2023-03-06T00:07:58.915Z,100606.09
2023-03-06T00:10:50.068Z,100610.16
2023-03-06T00:13:38.456Z,100614.38
2023-03-06T00:16:26.832Z,100587.13
2023-03-06T00:18:59.401Z,100604.66
2023-03-06T00:21:47.274Z,100587.13
2023-03-06T00:24:35.130Z,100594.06
2023-03-06T00:27:09.724Z,100587.59
2023-03-06T00:29:45.196Z,100583.97
2023-03-06T00:32:17.789Z,100582.41
2023-03-06T00:34:54.401Z,100574.91
2023-03-06T00:37:27.155Z,100588.00
2023-03-06T00:40:15.676Z,100580.97
2023-03-06T00:43:05.769Z,100572.50
2023-03-06T00:45:38.748Z,100556.78
2023-03-06T00:48:20.302Z,100560.47
2023-03-06T00:51:07.174Z,100574.72
2023-03-06T00:53:39.765Z,100565.28
2023-03-06T00:56:25.347Z,100555.50
2023-03-06T00:58:58.073Z,100562.66
2023-03-06T01:01:39.701Z,100556.63
2023-03-06T01:06:59.476Z,100548.13
2023-03-06T01:09:47.242Z,100539.75
2023-03-06T01:12:22.776Z,100533.97
2023-03-06T01:15:06.413Z,100543.69
2023-03-06T01:17:39.606Z,100539.38
2023-03-06T01:21:03.637Z,100549.00
2023-03-06T01:23:51.777Z,100529.72
2023-03-06T01:26:24.348Z,100539.25
2023-03-06T01:29:06.415Z,100539.09
2023-03-06T01:31:39.199Z,100524.66
2023-03-06T01:34:24.215Z,100530.50
2023-03-06T01:36:56.824Z,100524.81
2023-03-06T01:39:41.948Z,100518.19
2023-03-06T01:42:15.470Z,100518.06
2023-03-06T01:45:31.741Z,100534.44
2023-03-06T01:48:04.528Z,100523.09
2023-03-06T01:50:37.496Z,100518.94
2023-03-06T01:53:11.091Z,100522.03
2023-03-06T01:55:43.870Z,100524.81
2023-03-06T01:58:19.840Z,100511.16
2023-03-06T02:01:08.741Z,100508.66
2023-03-06T02:03:43.736Z,100499.13
2023-03-06T02:06:25.954Z,100522.97
2023-03-06T02:08:59.069Z,100507.13
2023-03-06T02:11:32.001Z,100489.41
2023-03-06T02:14:19.749Z,100517.31
2023-03-06T02:16:52.800Z,100511.91
2023-03-06T02:19:53.554Z,100509.59
2023-03-06T02:23:10.349Z,100490.84
2023-03-06T02:25:52.665Z,100499.81
2023-03-06T02:28:25.912Z,100493.81
2023-03-06T02:30:58.597Z,100478.81
2023-03-06T02:33:31.198Z,100478.53
2023-03-06T02:36:14.679Z,100487.19
2023-03-06T02:38:59.430Z,100480.09
2023-03-06T02:41:32.348Z,100479.78
2023-03-06T02:44:13.870Z,100470.34
2023-03-06T02:46:46.654Z,100462.47
2023-03-06T02:49:31.388Z,100438.41
2023-03-06T02:52:04.598Z,100442.47
2023-03-06T02:54:47.883Z,100460.16
2023-03-06T02:57:20.628Z,100449.00
2023-03-06T03:00:02.265Z,100446.09
2023-03-06T03:02:35.000Z,100449.19
2023-03-06T03:05:08.398Z,100451.69
2023-03-06T03:07:42.339Z,100453.25
2023-03-06T03:10:15.759Z,100449.38
2023-03-06T03:12:55.439Z,100442.47
2023-03-06T03:15:28.327Z,100434.75
2023-03-06T03:18:26.672Z,100442.66
2023-03-06T03:21:11.793Z,100444.28
2023-03-06T03:23:44.465Z,100437.84
2023-03-06T03:26:25.871Z,100411.38
2023-03-06T03:28:58.468Z,100437.84
2023-03-06T03:31:40.242Z,100426.31
2023-03-06T03:34:12.878Z,100425.25
2023-03-06T03:36:58.732Z,100429.56
2023-03-06T03:39:31.792Z,100429.56
2023-03-06T03:42:04.704Z,100424.38
2023-03-06T03:44:37.203Z,100429.25
2023-03-06T03:47:09.861Z,100418.00
2023-03-06T03:49:42.604Z,100418.50
2023-03-06T03:52:15.152Z,100415.72
2023-03-06T03:54:47.824Z,100399.34
2023-03-06T03:57:20.411Z,100413.41
2023-03-06T04:00:06.893Z,100380.19
2023-03-06T04:03:01.796Z,100396.56
2023-03-06T04:05:34.065Z,100387.78
2023-03-06T04:08:15.209Z,100380.78
2023-03-06T04:10:47.900Z,100382.03
2023-03-06T04:13:33.132Z,100380.47
2023-03-06T04:16:06.158Z,100382.03
2023-03-06T04:18:39.061Z,100386.06
2023-03-06T04:21:11.608Z,100390.09
2023-03-06T04:23:44.281Z,100376.81
2023-03-06T04:26:16.927Z,100376.06
2023-03-06T04:28:49.494Z,100374.81
2023-03-06T04:31:22.094Z,100350.66
2023-03-06T04:33:54.775Z,100370.66
2023-03-06T04:36:31.666Z,100362.09
2023-03-06T04:39:18.187Z,100374.69
2023-03-06T04:41:50.735Z,100371.63
2023-03-06T04:44:23.541Z,100350.06
2023-03-06T04:47:05.736Z,100357.56
2023-03-06T04:49:38.427Z,100367.31
2023-03-06T04:52:19.899Z,100365.75
2023-03-06T04:54:52.672Z,100346.22
2023-03-06T04:57:39.101Z,100363.13
2023-03-06T05:00:34.458Z,100362.38
2023-03-06T05:03:15.092Z,100369.22
2023-03-06T05:05:47.821Z,100359.31
2023-03-06T05:08:20.448Z,100358.72
2023-03-06T05:10:59.851Z,100363.34
2023-03-06T05:13:32.623Z,100358.72
2023-03-06T05:16:14.508Z,100359.97
2023-03-06T05:18:49.399Z,100351.03
2023-03-06T05:21:28.193Z,100326.59
2023-03-06T05:24:00.808Z,100338.72
2023-03-06T05:26:45.445Z,100347.94
2023-03-06T05:29:33.293Z,100352.03
2023-03-06T05:32:06.719Z,100346.22
2023-03-06T05:34:51.785Z,100308.44
2023-03-06T05:37:24.558Z,100342.84
2023-03-06T05:40:09.724Z,100337.00
2023-03-06T05:42:42.402Z,100309.59
2023-03-06T05:45:18.272Z,100317.75
2023-03-06T05:47:50.808Z,100330.84
2023-03-06T05:50:36.544Z,100321.13
2023-03-06T05:53:09.227Z,100330.06
2023-03-06T05:56:00.151Z,100333.44
2023-03-06T05:58:42.090Z,100335.63
2023-03-06T06:01:19.236Z,100335.06
2023-03-06T06:03:54.285Z,100326.13
2023-03-06T06:06:27.062Z,100331.97
2023-03-06T06:09:13.855Z,100327.94
2023-03-06T06:11:46.733Z,100332.53
2023-03-06T06:14:34.965Z,100312.66
2023-03-06T06:17:25.947Z,100330.06
2023-03-06T06:19:58.699Z,100307.56
2023-03-06T06:22:56.458Z,100335.19
2023-03-06T06:25:36.453Z,100324.91
2023-03-06T06:28:09.055Z,100327.50
2023-03-06T06:30:53.913Z,100325.88
2023-03-06T06:36:20.432Z,100322.63
2023-03-06T06:38:55.994Z,100310.88
2023-03-06T06:41:53.708Z,100328.22
2023-03-06T06:44:21.594Z,100330.16
2023-03-06T06:47:22.265Z,100327.75
2023-03-06T06:49:51.299Z,100327.38
2023-03-06T06:52:25.217Z,100331.31
2023-03-06T06:54:58.010Z,100312.28
2023-03-06T06:57:37.872Z,100322.84
2023-03-06T07:00:28.887Z,100339.75
2023-03-06T07:03:01.449Z,100335.81
2023-03-06T07:08:37.174Z,100333.00
2023-03-06T07:11:20.445Z,100326.16
2023-03-06T07:13:53.435Z,100339.97
2023-03-06T07:16:32.057Z,100338.81
2023-03-06T07:19:04.577Z,100338.13
2023-03-06T07:21:48.243Z,100310.25
2023-03-06T07:24:32.344Z,100326.75
2023-03-06T07:27:42.270Z,100344.75
2023-03-06T07:30:29.488Z,100329.41
2023-03-06T07:33:21.017Z,100317.13
2023-03-06T07:35:53.881Z,100340.56
2023-03-06T07:38:27.652Z,100317.53
2023-03-06T07:41:13.440Z,100338.09
2023-03-06T07:43:46.631Z,100327.31
2023-03-06T07:46:28.657Z,100321.72
2023-03-06T07:49:01.287Z,100339.03
2023-03-06T07:51:39.927Z,100330.28
2023-03-06T07:54:32.979Z,100303.75
2023-03-06T07:57:05.587Z,100337.97
2023-03-06T07:59:44.173Z,100316.91
2023-03-06T08:02:16.830Z,100345.09
2023-03-06T08:04:56.502Z,100325.69
2023-03-06T08:07:42.080Z,100336.00
2023-03-06T08:10:16.323Z,100345.09
2023-03-06T08:12:57.912Z,100342.28
2023-03-06T08:15:30.490Z,100339.78
2023-03-06T08:18:03.437Z,100347.69
2023-03-06T08:20:35.958Z,100354.03
2023-03-06T08:23:08.797Z,100345.38
2023-03-06T08:25:44.052Z,100345.38
2023-03-06T08:28:16.625Z,100351.53
2023-03-06T08:31:12.326Z,100323.47
2023-03-06T08:33:54.128Z,100345.94
2023-03-06T08:36:27.003Z,100346.50
2023-03-06T08:39:09.878Z,100354.19
2023-03-06T08:44:57.576Z,100348.59
2023-03-06T08:47:47.789Z,100337.22
2023-03-06T08:50:32.962Z,100344.03
2023-03-06T08:53:05.734Z,100327.22
2023-03-06T08:55:45.012Z,100335.38
2023-03-06T08:58:17.697Z,100329.31
2023-03-06T09:00:52.270Z,100344.13
2023-03-06T09:03:33.852Z,100346.97
2023-03-06T09:06:06.554Z,100324.72
2023-03-06T09:08:43.019Z,100340.06
2023-03-06T09:11:22.030Z,100339.31
2023-03-06T09:14:09.319Z,100347.25
2023-03-06T09:16:41.931Z,100355.44
2023-03-06T09:19:27.848Z,100340.41
2023-03-06T09:22:15.926Z,100342.31
2023-03-06T09:24:56.440Z,100350.19
2023-03-06T09:27:29.241Z,100344.34
2023-03-06T09:30:15.608Z,100335.16
2023-03-06T09:33:02.605Z,100335.16
2023-03-06T09:35:35.512Z,100359.19
2023-03-06T09:38:27.472Z,100346.69
2023-03-06T09:41:22.942Z,100363.38
2023-03-06T09:44:41.113Z,100369.00
2023-03-06T09:47:44.769Z,100363.94
2023-03-06T09:50:29.386Z,100363.09
2023-03-06T09:53:50.911Z,100352.19
2023-03-06T09:56:31.194Z,100361.34
2023-03-06T09:59:26.096Z,100358.88
2023-03-06T10:02:12.915Z,100360.84
2023-03-06T10:04:53.345Z,100360.84
2023-03-06T10:07:43.840Z,100357.34
2023-03-06T10:10:28.031Z,100350.22
2023-03-06T10:13:18.573Z,100345.63
2023-03-06T10:16:02.058Z,100354.56
2023-03-06T10:18:39.151Z,100352.53
2023-03-06T10:21:48.434Z,100348.25
2023-03-06T10:24:54.651Z,100355.94
2023-03-06T10:27:42.781Z,100355.09
2023-03-06T10:30:43.821Z,100348.75
2023-03-06T10:33:34.081Z,100344.19
2023-03-06T10:36:10.455Z,100334.00
2023-03-06T10:38:45.619Z,100347.00
2023-03-06T10:41:28.617Z,100344.47
2023-03-06T10:44:01.121Z,100348.78
2023-03-06T10:46:47.397Z,100350.34
2023-03-06T10:49:37.541Z,100343.06
2023-03-06T10:52:18.857Z,100351.44
2023-03-06T10:55:12.612Z,100353.00
2023-03-06T10:57:57.545Z,100333.56
2023-03-06T11:00:42.285Z,100343.84
2023-03-06T11:03:36.958Z,100352.78
2023-03-06T11:07:21.957Z,100336.78
2023-03-06T11:10:19.675Z,100354.41
2023-03-06T11:13:21.305Z,100347.50
2023-03-06T11:16:03.934Z,100342.13
2023-03-06T11:18:59.109Z,100341.38
2023-03-06T11:22:17.642Z,100335.88
2023-03-06T11:24:54.954Z,100339.59
2023-03-06T11:27:34.812Z,100338.84
2023-03-06T11:30:20.191Z,100344.22
2023-03-06T11:33:02.473Z,100339.41
2023-03-06T11:36:41.616Z,100338.75
2023-03-06T11:39:31.339Z,100331.81
2023-03-06T11:42:26.044Z,100324.13
2023-03-06T11:45:26.760Z,100333.28
2023-03-06T11:48:14.214Z,100330.34
2023-03-06T11:50:52.049Z,100323.44
2023-03-06T11:53:35.530Z,100328.78
2023-03-06T11:56:20.606Z,100321.72
2023-03-06T11:59:46.707Z,100312.38
2023-03-06T12:02:57.753Z,100303.41
2023-03-06T12:05:40.333Z,100311.31
2023-03-06T12:09:09.902Z,100301.69
2023-03-06T12:11:53.706Z,100290.22
2023-03-06T12:15:09.999Z,100296.91
2023-03-06T12:18:19.801Z,100287.97
2023-03-06T12:21:39.169Z,100286.00
2023-03-06T12:24:29.952Z,100284.94
2023-03-06T12:27:27.587Z,100287.25
2023-03-06T12:30:47.666Z,100277.88
2023-03-06T12:33:35.164Z,100263.09
2023-03-06T12:37:04.495Z,100269.81
2023-03-06T12:40:06.641Z,100256.72
2023-03-06T12:43:10.573Z,100258.78
2023-03-06T12:45:44.432Z,100258.28
2023-03-06T12:48:27.867Z,100261.31
2023-03-06T12:51:04.337Z,100257.50
2023-03-06T12:53:43.272Z,100249.63
2023-03-06T12:56:33.036Z,100250.13
2023-03-06T12:59:07.127Z,100221.03
2023-03-06T13:02:37.451Z,100250.81
2023-03-06T13:06:06.057Z,100223.16
2023-03-06T13:12:55.702Z,100250.22
2023-03-06T13:15:55.858Z,100237.41
2023-03-06T13:19:03.087Z,100258.34
2023-03-06T13:21:53.983Z,100255.28
2023-03-06T13:24:45.731Z,100224.63
2023-03-06T13:27:53.101Z,100244.81
2023-03-06T13:31:10.689Z,100248.13
2023-03-06T13:34:36.447Z,100213.19
2023-03-06T13:40:34.585Z,100234.41
2023-03-06T13:43:07.282Z,100231.06
2023-03-06T13:45:48.884Z,100207.13
2023-03-06T13:48:44.880Z,100235.41
2023-03-06T13:51:40.340Z,100211.69
2023-03-06T13:55:17.812Z,100229.88
2023-03-06T13:58:46.984Z,100231.41
2023-03-06T14:08:19.821Z,100206.69
2023-03-06T14:11:17.008Z,100221.22
2023-03-06T14:13:56.865Z,100216.31
2023-03-06T14:16:49.482Z,100211.50
2023-03-06T14:19:22.868Z,100202.84
2023-03-06T14:21:57.682Z,100201.84
2023-03-06T14:24:43.539Z,100195.22
2023-03-06T14:28:12.540Z,100175.91
2023-03-06T14:30:52.305Z,100173.34
2023-03-06T14:33:51.397Z,100185.59
2023-03-06T14:36:36.270Z,100181.50
2023-03-06T14:39:52.970Z,100182.81
2023-03-06T14:45:20.133Z,100157.78
2023-03-06T14:48:01.808Z,100142.28
2023-03-06T14:50:35.367Z,100159.88
2023-03-06T14:53:35.990Z,100160.66
2023-03-06T14:56:26.610Z,100151.75
2023-03-06T15:00:08.144Z,100122.66
2023-03-06T15:02:43.727Z,100109.97
2023-03-06T15:08:39.284Z,100127.28
2023-03-06T15:11:13.196Z,100133.66
2023-03-06T15:14:04.742Z,100139.03
2023-03-06T15:17:17.920Z,100098.53
2023-03-06T15:19:54.810Z,100108.19
2023-03-06T15:22:49.910Z,100117.88
2023-03-06T15:26:15.285Z,100112.78
2023-03-06T15:29:22.996Z,100103.13
2023-03-06T15:32:30.282Z,100089.41
2023-03-06T15:35:37.658Z,100114.38
2023-03-06T15:38:43.648Z,100114.34
2023-03-06T15:41:44.946Z,100111.56
2023-03-06T15:44:18.585Z,100091.91
2023-03-06T15:47:08.392Z,100058.56
2023-03-06T15:49:53.978Z,100087.34
2023-03-06T15:52:35.760Z,100083.28
2023-03-06T15:55:25.904Z,100077.72
2023-03-06T15:58:21.443Z,100067.00
2023-03-06T16:00:54.524Z,100053.50
2023-03-06T16:03:27.379Z,100069.28
2023-03-06T16:06:14.440Z,100067.25
2023-03-06T16:08:47.351Z,100046.88
2023-03-06T16:11:35.460Z,100058.09
2023-03-06T16:14:20.167Z,100046.47
2023-03-06T16:16:54.284Z,100042.84
2023-03-06T16:19:35.099Z,100034.41
2023-03-06T16:22:08.385Z,100036.47
2023-03-06T16:24:41.941Z,100034.69
2023-03-06T16:27:23.346Z,100031.59
2023-03-06T16:29:56.045Z,100034.94
2023-03-06T16:32:28.905Z,100034.94
2023-03-06T16:35:02.044Z,100016.06
2023-03-06T16:37:47.397Z,100033.41
2023-03-06T16:40:37.452Z,100013.53
2023-03-06T16:43:11.085Z,100033.66
2023-03-06T16:45:44.006Z,100021.44
2023-03-06T16:48:17.301Z,100019.66
2023-03-06T16:50:50.370Z,100027.28
2023-03-06T16:53:23.195Z,100024.22
2023-03-06T16:55:59.226Z,100025.50
2023-03-06T16:58:32.205Z,100005.34
2023-03-06T17:01:05.623Z,99996.72
2023-03-06T17:03:50.097Z,100008.22
2023-03-06T17:06:23.243Z,100017.84
2023-03-06T17:09:01.935Z,100008.41
2023-03-06T17:11:47.014Z,100014.03
2023-03-06T17:14:20.081Z,100003.03
2023-03-06T17:16:54.164Z,99989.56
2023-03-06T17:19:28.171Z,100009.28
2023-03-06T17:22:01.000Z,100011.25
2023-03-06T17:24:36.000Z,100014.00
2023-03-06T17:27:19.970Z,100005.63
2023-03-06T17:29:52.869Z,100006.63
2023-03-06T17:32:27.634Z,100010.44
2023-03-06T17:35:00.191Z,100005.09
2023-03-06T17:37:32.923Z,100002.50
2023-03-06T17:40:09.236Z,99998.44
2023-03-06T17:42:41.921Z,100004.78
2023-03-06T17:45:15.585Z,100015.44
2023-03-06T17:47:49.206Z,100009.06
2023-03-06T17:50:21.896Z,100003.19
2023-03-06T17:55:55.284Z,100010.81
2023-03-06T17:58:36.006Z,100012.06
2023-03-06T18:01:22.090Z,100004.19
2023-03-06T18:03:55.060Z,99980.97
2023-03-06T18:06:34.793Z,99986.09
2023-03-06T18:09:08.042Z,100003.13
2023-03-06T18:11:53.279Z,99999.34
2023-03-06T18:14:38.200Z,99992.41
2023-03-06T18:17:16.460Z,99990.09
2023-03-06T18:19:49.170Z,99975.59
2023-03-06T18:22:27.646Z,99991.66
2023-03-06T18:25:00.305Z,99980.47
2023-03-06T18:27:44.452Z,99981.72
2023-03-06T18:30:17.706Z,99974.34
2023-03-06T18:33:03.630Z,99974.88
2023-03-06T18:35:48.554Z,99942.00
2023-03-06T18:38:29.546Z,99964.41
2023-03-06T18:41:02.211Z,99935.38
2023-03-06T18:43:52.307Z,99931.59
2023-03-06T18:46:29.162Z,99929.56
2023-03-06T18:49:16.820Z,99937.72
2023-03-06T18:51:58.521Z,99926.81
2023-03-06T18:54:48.649Z,99918.13
2023-03-06T18:57:24.319Z,99924.44
2023-03-06T18:59:57.187Z,99907.16
2023-03-06T19:02:32.920Z,99907.91
2023-03-06T19:05:07.350Z,99924.72
2023-03-06T19:07:40.189Z,99912.25
2023-03-06T19:10:13.258Z,99891.63
2023-03-06T19:12:58.179Z,99915.09
2023-03-06T19:15:45.392Z,99880.72
2023-03-06T19:18:18.510Z,99910.97
2023-03-06T19:21:11.971Z,99908.72
2023-03-06T19:23:59.423Z,99884.25
2023-03-06T19:26:57.200Z,99906.72
2023-03-06T19:29:29.926Z,99899.81
2023-03-06T19:32:17.980Z,99866.25
2023-03-06T19:34:50.898Z,99858.84
2023-03-06T19:37:33.509Z,99880.50
2023-03-06T19:40:10.322Z,99870.09
2023-03-06T19:42:49.942Z,99856.63
2023-03-06T19:51:19.535Z,99857.47
2023-03-06T19:53:53.075Z,99870.47
2023-03-06T19:56:29.363Z,99837.66
2023-03-06T19:59:06.555Z,99862.63
2023-03-06T20:01:39.814Z,99850.66
2023-03-06T20:04:26.366Z,99853.75
2023-03-06T20:06:59.758Z,99810.78
2023-03-06T20:09:32.998Z,99843.34
2023-03-06T20:12:08.212Z,99826.31
2023-03-06T20:14:46.429Z,99819.22
2023-03-06T20:17:19.008Z,99832.94
2023-03-06T20:19:52.412Z,99818.97
2023-03-06T20:22:25.136Z,99810.63
2023-03-06T20:25:03.714Z,99813.69
2023-03-06T20:27:37.047Z,99811.41
2023-03-06T20:30:10.476Z,99783.91
2023-03-06T20:32:46.137Z,99809.88
2023-03-06T20:38:31.069Z,99774.56
2023-03-06T20:41:08.895Z,99774.28
2023-03-06T20:43:48.841Z,99782.16
2023-03-06T20:46:24.909Z,99771.50
2023-03-06T20:49:03.732Z,99756.50
2023-03-06T20:51:39.269Z,99759.53
2023-03-06T20:54:15.245Z,99760.56
2023-03-06T20:56:49.160Z,99771.00
2023-03-06T20:59:22.101Z,99769.22
2023-03-06T21:01:57.095Z,99762.34
2023-03-06T21:04:32.909Z,99767.44
2023-03-06T21:07:06.810Z,99767.94
2023-03-06T21:09:41.736Z,99759.31
2023-03-06T21:12:14.697Z,99757.25
2023-03-06T21:15:10.536Z,99750.91
2023-03-06T21:17:41.565Z,99729.81
2023-03-06T21:20:20.072Z,99752.69
2023-03-06T21:22:52.734Z,99741.00
2023-03-06T21:25:25.274Z,99734.91
2023-03-06T21:27:59.245Z,99740.50
2023-03-06T21:30:44.258Z,99717.09
2023-03-06T21:33:17.229Z,99728.00
2023-03-06T21:35:49.957Z,99724.47
2023-03-06T21:38:22.688Z,99693.69
2023-03-06T21:40:56.223Z,99712.50
2023-03-06T21:43:28.877Z,99709.44
2023-03-06T21:46:02.972Z,99684.31
2023-03-06T21:48:35.818Z,99705.44
2023-03-06T21:51:13.187Z,99702.84
2023-03-06T21:53:48.656Z,99708.94
2023-03-06T21:56:25.134Z,99685.31
2023-03-06T21:59:08.391Z,99705.38
2023-03-06T22:01:57.282Z,99684.81
2023-03-06T22:04:29.977Z,99695.97
2023-03-06T22:07:07.990Z,99694.97
2023-03-06T22:09:55.464Z,99668.81
2023-03-06T22:12:29.476Z,99680.25
2023-03-06T22:15:14.030Z,99667.53
2023-03-06T22:17:48.739Z,99679.47
2023-03-06T22:20:34.767Z,99656.09
2023-03-06T22:23:22.403Z,99682.25
2023-03-06T22:26:14.325Z,99684.03
2023-03-06T22:28:53.174Z,99678.94
2023-03-06T22:31:28.773Z,99685.03
2023-03-06T22:34:01.975Z,99675.63
2023-03-06T22:36:49.916Z,99664.97
2023-03-06T22:39:22.669Z,99657.09
2023-03-06T22:41:58.998Z,99660.66
2023-03-06T22:44:40.825Z,99649.25
2023-03-06T22:47:25.674Z,99648.19
2023-03-06T22:50:13.761Z,99628.91
2023-03-06T22:52:49.694Z,99620.53
2023-03-06T22:55:31.447Z,99657.09
2023-03-06T22:58:07.027Z,99631.44
2023-03-06T23:00:39.615Z,99663.47
2023-03-06T23:03:12.170Z,99664.72
2023-03-06T23:05:47.710Z,99645.13
2023-03-06T23:08:26.584Z,99667.25
2023-03-06T23:11:14.677Z,99667.50
2023-03-06T23:13:47.392Z,99653.00
2023-03-06T23:16:29.657Z,99654.53
2023-03-06T23:19:11.640Z,99654.28
2023-03-06T23:21:44.256Z,99649.69
2023-03-06T23:24:22.937Z,99636.69
2023-03-06T23:27:02.965Z,99642.03
2023-03-06T23:29:35.900Z,99649.44
2023-03-06T23:32:12.789Z,99665.94
2023-03-06T23:34:48.665Z,99656.28
2023-03-06T23:37:24.535Z,99650.44
2023-03-06T23:40:10.619Z,99643.31
2023-03-06T23:42:43.418Z,99637.94
2023-03-06T23:45:22.187Z,99656.03
2023-03-06T23:47:55.078Z,99663.38
2023-03-06T23:50:31.920Z,99650.41
2023-03-06T23:53:17.647Z,99643.53
2023-03-06T23:55:51.305Z,99654.19
2023-03-06T23:58:25.058Z,99651.38
